Time;durP1;ratioP1;P1;durP2;ratioP2;P2;SDS_P1;SDS_P2;PMS_P1;PMS_P2;Temp;Humidity;BMP_temperature;BMP_pressure;BME280_temperature;BME280_humidity;BME280_pressure;Samples;Min_cycle;Max_cycle;Signal;HPM_P1;HPM_P2
2021/11/19 00:01:38;;;;;;;52.23;23.42;;;;;;;2.05;100.00;99625.64;1654984;86;21060;-68
2021/11/19 00:04:09;;;;;;;47.00;21.45;;;;;;;2.02;100.00;99623.45;1660168;86;22053;-69
2021/11/19 00:06:39;;;;;;;47.85;21.93;;;;;;;1.99;100.00;99624.24;1659626;86;20971;-68
2021/11/19 00:09:13;;;;;;;44.85;21.10;;;;;;;1.96;100.00;99622.59;1659497;86;20924;-67
2021/11/19 00:11:45;;;;;;;49.53;22.85;;;;;;;1.93;100.00;99623.91;1659534;86;21491;-67
2021/11/19 00:14:23;;;;;;;43.48;21.27;;;;;;;1.89;100.00;99622.80;1621863;85;21007;-68
2021/11/19 00:17:06;;;;;;;45.25;21.37;;;;;;;1.85;100.00;99612.73;1638330;86;21048;-68
2021/11/19 00:19:41;;;;;;;42.65;21.10;;;;;;;1.81;100.00;99615.14;1644845;85;20932;-67
2021/11/19 00:22:13;;;;;;;38.98;19.48;;;;;;;1.79;100.00;99607.81;1670171;85;21050;-68
2021/11/19 00:24:45;;;;;;;45.30;21.10;;;;;;;1.78;100.00;99608.88;1669841;85;21008;-67
2021/11/19 00:27:15;;;;;;;43.63;20.65;;;;;;;1.78;100.00;99604.82;1656225;85;21507;-66
2021/11/19 00:29:48;;;;;;;43.33;20.95;;;;;;;1.79;100.00;99607.00;1633928;86;21013;-66
2021/11/19 00:32:23;;;;;;;41.90;18.52;;;;;;;1.80;100.00;99604.56;1659702;86;21047;-66
2021/11/19 00:34:55;;;;;;;38.78;18.62;;;;;;;1.79;100.00;99602.40;1659318;86;21029;-67
2021/11/19 00:37:27;;;;;;;42.67;21.60;;;;;;;1.74;100.00;99605.05;1659644;86;20920;-67
2021/11/19 00:39:58;;;;;;;43.00;19.67;;;;;;;1.70;100.00;99598.55;1659879;86;21043;-66
2021/11/19 00:42:28;;;;;;;37.80;18.55;;;;;;;1.67;100.00;99596.89;1633720;86;20945;-65
2021/11/19 00:45:03;;;;;;;50.83;21.27;;;;;;;1.62;100.00;99594.95;1660184;86;20996;-65
2021/11/19 00:47:30;;;;;;;41.77;18.57;;;;;;;1.57;100.00;99590.84;1660436;86;21524;-64
2021/11/19 00:50:06;;;;;;;48.95;21.87;;;;;;;1.52;100.00;99585.38;1660291;86;20998;-66
2021/11/19 00:52:37;;;;;;;41.28;19.25;;;;;;;1.49;100.00;99584.54;1660339;86;21451;-66
2021/11/19 00:55:11;;;;;;;37.23;18.60;;;;;;;1.45;100.00;99581.53;1660221;86;21440;-66
2021/11/19 00:57:42;;;;;;;42.85;19.45;;;;;;;1.44;100.00;99581.25;1659849;86;21044;-66
2021/11/19 01:00:16;;;;;;;42.50;17.60;;;;;;;1.43;100.00;99566.63;1656761;86;21036;-67
2021/11/19 01:02:47;;;;;;;37.98;18.70;;;;;;;1.43;100.00;99567.97;1657809;86;21028;-65
2021/11/19 01:05:18;;;;;;;37.03;19.20;;;;;;;1.42;100.00;99563.64;1647789;86;20936;-65
2021/11/19 01:07:51;;;;;;;38.05;16.25;;;;;;;1.42;100.00;99569.05;1659993;86;21251;-65
2021/11/19 01:10:26;;;;;;;36.98;17.95;;;;;;;1.42;100.00;99563.09;1637957;86;20975;-65
2021/11/19 01:12:56;;;;;;;37.67;17.60;;;;;;;1.42;100.00;99560.93;1656709;86;21033;-65
2021/11/19 01:15:36;;;;;;;40.80;18.02;;;;;;;1.41;100.00;99554.70;1640383;86;20892;-65
2021/11/19 01:18:11;;;;;;;36.68;17.20;;;;;;;1.40;100.00;99553.61;1660181;86;20944;-65
2021/11/19 01:20:52;;;;;;;37.05;18.25;;;;;;;1.35;100.00;99553.02;1657947;86;21831;-65
2021/11/19 01:23:23;;;;;;;32.35;16.35;;;;;;;1.29;100.00;99552.69;1657929;86;21008;-65
2021/11/19 01:25:56;;;;;;;32.20;17.00;;;;;;;1.23;100.00;99547.76;1660501;86;20920;-65
2021/11/19 01:28:28;;;;;;;31.35;16.80;;;;;;;1.15;100.00;99545.54;1660173;86;22057;-64
2021/11/19 01:31:09;;;;;;;35.50;15.83;;;;;;;1.10;100.00;99540.61;1658633;85;21020;-64
2021/11/19 01:33:41;;;;;;;36.88;16.62;;;;;;;1.07;100.00;99543.28;1634313;86;21463;-64
2021/11/19 01:36:11;;;;;;;34.83;16.40;;;;;;;1.02;100.00;99533.77;1632137;86;20928;-64
2021/11/19 01:38:51;;;;;;;37.67;16.70;;;;;;;0.96;100.00;99538.83;1644778;85;21443;-64
2021/11/19 01:41:32;;;;;;;43.05;18.20;;;;;;;0.91;100.00;99532.83;1660067;86;21056;-65
2021/11/19 01:44:02;;;;;;;32.28;15.95;;;;;;;0.91;100.00;99529.31;1657431;86;21056;-66
2021/11/19 01:46:31;;;;;;;34.98;17.40;;;;;;;0.91;100.00;99529.31;1658806;86;21176;-65
2021/11/19 01:49:10;;;;;;;34.20;16.85;;;;;;;0.89;100.00;99525.52;1637948;86;20920;-65
2021/11/19 01:51:57;;;;;;;32.33;16.67;;;;;;;0.91;100.00;99525.26;1658790;86;21582;-65
2021/11/19 01:54:36;;;;;;;34.90;16.67;;;;;;;0.88;100.00;99510.36;1641151;86;20932;-66
2021/11/19 01:57:13;;;;;;;34.85;15.00;;;;;;;0.85;100.00;99508.16;1656574;86;20996;-66
2021/11/19 01:59:46;;;;;;;35.90;17.32;;;;;;;0.84;100.00;99500.31;1657788;86;21134;-65
2021/11/19 02:02:23;;;;;;;28.95;16.57;;;;;;;0.81;100.00;99502.17;1636460;86;21478;-64
2021/11/19 02:05:00;;;;;;;30.77;15.58;;;;;;;0.78;100.00;99494.56;1652071;86;20948;-65
2021/11/19 02:07:44;;;;;;;30.27;15.85;;;;;;;0.76;100.00;99497.52;1638339;86;20961;-64
2021/11/19 02:10:59;;;;;;;;;;;;;;;0.73;100.00;99483.70;1660596;86;21008;-65
2021/11/19 02:13:54;;;;;;;45.90;18.75;;;;;;;0.68;100.00;99489.05;1657803;84;20681;-64
2021/11/19 02:16:32;;;;;;;41.98;18.90;;;;;;;0.62;100.00;99494.39;1687734;84;21451;-65
2021/11/19 02:19:16;;;;;;;35.98;17.35;;;;;;;0.57;100.00;99497.05;1690800;84;20992;-65
2021/11/19 02:21:57;;;;;;;39.20;16.52;;;;;;;0.52;100.00;99496.98;1681908;84;20989;-65
2021/11/19 02:24:32;;;;;;;35.17;15.70;;;;;;;0.47;100.00;99497.46;1652400;85;20940;-65
2021/11/19 02:27:27;;;;;;;35.60;16.00;;;;;;;0.42;100.00;99501.45;1659560;85;21184;-66
2021/11/19 02:30:01;;;;;;;35.45;16.73;;;;;;;0.37;100.00;99501.38;1658072;86;21479;-66
2021/11/19 02:32:34;;;;;;;33.73;16.73;;;;;;;0.34;100.00;99501.34;1663925;85;20932;-66
2021/11/19 02:35:03;;;;;;;;;;;;;;;0.33;100.00;99501.88;1662997;86;20964;-65
2021/11/19 02:37:43;;;;;;;33.65;16.00;;;;;;;0.30;100.00;99494.28;1634585;86;20469;-65
2021/11/19 02:40:27;;;;;;;26.70;14.58;;;;;;;0.28;100.00;99494.23;1658646;86;22708;-65
2021/11/19 02:43:03;;;;;;;30.32;15.13;;;;;;;0.28;100.00;99492.36;1661462;86;21020;-66
2021/11/19 02:45:43;;;;;;;33.67;17.23;;;;;;;0.28;100.00;99483.44;1657174;86;20960;-68
2021/11/19 02:48:18;;;;;;;30.92;16.30;;;;;;;0.27;100.00;99490.72;1657899;86;20968;-68
2021/11/19 02:50:49;;;;;;;26.50;14.35;;;;;;;0.30;100.00;99486.70;1656713;84;20960;-65
2021/11/19 02:53:17;;;;;;;33.45;16.12;;;;;;;0.31;100.00;99484.29;1662088;85;21569;-67
2021/11/19 02:55:48;;;;;;;35.60;17.55;;;;;;;0.32;100.00;99474.59;1667124;85;20941;-67
2021/11/19 02:58:27;;;;;;;31.12;16.23;;;;;;;0.35;100.00;99466.52;1663830;85;20932;-66
2021/11/19 03:01:18;;;;;;;37.55;17.05;;;;;;;0.37;100.00;99470.32;1660133;86;20949;-66
2021/11/19 03:04:01;;;;;;;31.35;16.85;;;;;;;0.37;100.00;99472.48;1639589;86;21448;-67
2021/11/19 03:06:44;;;;;;;31.48;16.80;;;;;;;0.39;100.00;99479.81;1642216;86;21119;-67
2021/11/19 03:09:15;;;;;;;30.10;16.85;;;;;;;0.39;100.00;99469.00;1659896;86;20912;-67
2021/11/19 03:11:46;;;;;;;30.20;16.23;;;;;;;0.40;100.00;99471.98;1654336;85;21464;-66
2021/11/19 03:14:20;;;;;;;37.95;15.90;;;;;;;0.42;100.00;99465.80;1646849;85;21449;-66
2021/11/19 03:16:53;;;;;;;29.82;15.43;;;;;;;0.42;100.00;99464.45;1656230;85;21011;-65
2021/11/19 03:19:26;;;;;;;37.00;15.55;;;;;;;0.43;100.00;99470.67;1638574;86;21011;-66
2021/11/19 03:22:01;;;;;;;31.17;15.63;;;;;;;0.43;100.00;99459.87;1641608;86;20944;-69
2021/11/19 03:24:32;;;;;;;34.08;16.80;;;;;;;0.44;100.00;99455.56;1651860;86;21198;-68
2021/11/19 03:27:02;;;;;;;36.38;16.48;;;;;;;0.45;100.00;99465.30;1650612;86;21556;-68
2021/11/19 03:29:31;;;;;;;35.98;15.72;;;;;;;0.47;100.00;99446.95;1664117;85;36151;-68
2021/11/19 03:32:05;;;;;;;31.45;15.72;;;;;;;0.50;100.00;99449.16;1656340;85;21925;-68
2021/11/19 03:34:34;;;;;;;39.53;17.70;;;;;;;0.52;100.00;99434.86;1657271;86;21083;-64
2021/11/19 03:37:12;;;;;;;36.13;17.87;;;;;;;0.56;100.00;99427.08;1634346;86;20925;-64
2021/11/19 03:39:48;;;;;;;32.48;16.27;;;;;;;0.59;100.00;99428.70;1641296;86;20984;-66
2021/11/19 03:42:24;;;;;;;38.20;15.88;;;;;;;0.65;100.00;99420.13;1640996;86;20897;-65
2021/11/19 03:44:59;;;;;;;33.75;16.40;;;;;;;0.70;100.00;99422.88;1660101;86;21242;-63
2021/11/19 03:47:36;;;;;;;34.95;17.73;;;;;;;0.76;100.00;99418.34;1636094;86;21060;-63
2021/11/19 03:50:08;;;;;;;34.48;18.02;;;;;;;0.82;100.00;99411.92;1661365;86;20916;-63
2021/11/19 03:52:42;;;;;;;40.25;19.48;;;;;;;0.87;100.00;99417.38;1658221;86;20977;-63
2021/11/19 03:55:15;;;;;;;35.83;16.85;;;;;;;0.92;100.00;99416.08;1660003;86;21510;-64
2021/11/19 03:57:44;;;;;;;32.80;16.45;;;;;;;0.95;100.00;99408.27;1660167;86;21165;-63
2021/11/19 04:00:20;;;;;;;32.20;16.17;;;;;;;0.98;100.00;99411.00;1659619;86;20941;-64
2021/11/19 04:02:50;;;;;;;40.17;18.42;;;;;;;0.96;100.00;99403.14;1660182;86;20976;-64
2021/11/19 04:05:22;;;;;;;39.98;17.80;;;;;;;0.94;100.00;99386.91;1660150;86;20999;-64
2021/11/19 04:07:56;;;;;;;40.25;18.15;;;;;;;0.94;100.00;99383.66;1638981;86;20949;-65
2021/11/19 04:10:26;;;;;;;30.05;15.08;;;;;;;0.94;100.00;99378.26;1659769;86;21193;-64
2021/11/19 04:12:57;;;;;;;33.15;17.77;;;;;;;0.95;100.00;99373.67;1660076;86;20917;-64
2021/11/19 04:15:39;;;;;;;45.67;22.13;;;;;;;0.94;100.00;99375.55;1660131;86;21535;-64
2021/11/19 04:18:10;;;;;;;76.65;28.42;;;;;;;0.96;100.00;99372.59;1659913;86;21495;-64
2021/11/19 04:20:39;;;;;;;58.08;24.30;;;;;;;0.97;100.00;99370.17;1658728;86;21036;-64
2021/11/19 04:23:15;;;;;;;37.30;19.40;;;;;;;1.00;100.00;99361.55;1633846;86;20980;-64
2021/11/19 04:25:43;;;;;;;39.75;18.20;;;;;;;1.03;100.00;99362.39;1657664;85;21419;-65
2021/11/19 04:28:13;;;;;;;47.20;20.05;;;;;;;1.06;100.00;99361.88;1658418;86;20917;-68
2021/11/19 04:30:46;;;;;;;37.50;19.12;;;;;;;1.10;100.00;99350.01;1653595;86;20963;-68
2021/11/19 04:33:20;;;;;;;31.80;17.10;;;;;;;1.14;100.00;99353.29;1660110;86;21043;-64
2021/11/19 04:35:55;;;;;;;43.28;19.92;;;;;;;1.19;100.00;99351.13;1660214;86;20975;-67
2021/11/19 04:38:26;;;;;;;33.55;16.45;;;;;;;1.23;100.00;99351.70;1613506;88;20998;-68
2021/11/19 04:40:58;;;;;;;40.45;19.95;;;;;;;1.30;100.00;99351.48;1640554;86;20944;-67
2021/11/19 04:43:35;;;;;;;32.35;17.65;;;;;;;1.36;100.00;99349.62;1671769;85;21875;-66
2021/11/19 04:46:06;;;;;;;32.42;13.83;;;;;;;1.41;100.00;99346.42;1665617;85;20983;-69
2021/11/19 04:48:39;;;;;;;32.93;15.90;;;;;;;1.46;100.00;99341.05;1669989;85;21246;-68
2021/11/19 04:51:19;;;;;;;29.15;14.45;;;;;;;1.49;100.00;99333.76;1660127;85;20881;-67
2021/11/19 04:53:52;;;;;;;32.98;15.55;;;;;;;1.53;100.00;99342.17;1656918;86;20910;-67
2021/11/19 04:56:20;;;;;;;32.15;16.40;;;;;;;1.57;100.00;99329.21;1655119;86;21031;-67
2021/11/19 04:58:53;;;;;;;34.35;16.00;;;;;;;1.61;100.00;99323.55;1660469;86;20964;-67
2021/11/19 05:01:24;;;;;;;32.65;16.32;;;;;;;1.64;100.00;99322.21;1655011;86;21941;-67
2021/11/19 05:04:00;;;;;;;31.00;16.15;;;;;;;1.66;100.00;99322.77;1660289;86;20976;-66
2021/11/19 05:06:30;;;;;;;25.85;12.93;;;;;;;1.69;100.00;99329.55;1660110;85;21011;-67
2021/11/19 05:08:58;;;;;;;36.30;15.85;;;;;;;1.71;100.00;99326.84;1658795;86;21032;-67
2021/11/19 05:11:32;;;;;;;29.63;14.10;;;;;;;1.74;100.00;99316.83;1640844;85;21494;-67
2021/11/19 05:14:02;;;;;;;28.60;15.10;;;;;;;1.76;100.00;99322.78;1658157;86;21168;-67
2021/11/19 05:16:35;;;;;;;31.00;15.40;;;;;;;1.77;100.00;99324.95;1634720;86;21534;-67
2021/11/19 05:19:09;;;;;;;30.75;15.10;;;;;;;1.79;100.00;99330.37;1653261;86;20976;-66
2021/11/19 05:21:42;;;;;;;22.65;13.32;;;;;;;1.82;100.00;99324.44;1658377;86;20920;-67
2021/11/19 05:24:14;;;;;;;32.78;15.08;;;;;;;1.85;100.00;99329.33;1659586;86;21499;-67
2021/11/19 05:26:46;;;;;;;27.75;15.75;;;;;;;1.89;100.00;99326.37;1636129;85;21174;-67
2021/11/19 05:29:17;;;;;;;28.83;15.60;;;;;;;1.91;100.00;99328.27;1660074;86;20972;-67
2021/11/19 05:31:49;;;;;;;30.52;14.13;;;;;;;1.94;100.00;99328.28;1660066;86;20957;-67
2021/11/19 05:34:19;;;;;;;27.05;14.53;;;;;;;1.98;100.00;99328.03;1660510;86;20964;-67
2021/11/19 05:36:52;;;;;;;25.48;14.60;;;;;;;2.01;100.00;99320.73;1660608;86;21099;-66
2021/11/19 05:39:24;;;;;;;32.73;15.98;;;;;;;2.02;100.00;99319.66;1659837;86;21805;-68
2021/11/19 05:41:52;;;;;;;30.20;15.90;;;;;;;2.04;100.00;99322.09;1660120;86;20952;-69
2021/11/19 05:44:23;;;;;;;26.95;14.65;;;;;;;2.04;100.00;99316.14;1659621;85;21514;-67
2021/11/19 05:47:05;;;;;;;29.23;14.07;;;;;;;2.07;100.00;99314.80;1639590;86;20975;-66
2021/11/19 05:49:39;;;;;;;28.35;15.00;;;;;;;2.08;100.00;99317.78;1659458;85;21077;-67
2021/11/19 05:52:11;;;;;;;26.65;14.75;;;;;;;2.08;100.00;99318.59;1659680;85;21257;-68
2021/11/19 05:54:43;;;;;;;32.83;15.95;;;;;;;2.09;100.00;99312.64;1659709;86;21020;-71
2021/11/19 05:57:11;;;;;;;29.50;15.03;;;;;;;2.11;100.00;99309.13;1659600;86;21023;-67
2021/11/19 05:59:44;;;;;;;31.60;15.73;;;;;;;2.12;100.00;99301.28;1660255;86;20960;-80
2021/11/19 06:02:21;;;;;;;32.58;15.78;;;;;;;2.15;100.00;99299.39;1659827;86;21028;-67
2021/11/19 06:04:49;;;;;;;34.10;15.60;;;;;;;2.15;100.00;99301.56;1637946;86;21120;-66
2021/11/19 06:07:37;;;;;;;24.50;14.65;;;;;;;2.17;100.00;99298.05;1579361;89;21012;-69
2021/11/19 06:10:08;;;;;;;27.48;15.45;;;;;;;2.20;100.00;99296.70;1636472;86;20916;-69
2021/11/19 06:12:43;;;;;;;28.40;15.90;;;;;;;2.22;100.00;99291.83;1654619;86;20967;-67
2021/11/19 06:15:21;;;;;;;29.25;16.30;;;;;;;2.24;100.00;99294.54;1658410;86;22282;-68
2021/11/19 06:17:52;;;;;;;32.00;16.67;;;;;;;2.24;100.00;99289.12;1660111;86;21474;-69
2021/11/19 06:20:30;;;;;;;33.80;16.25;;;;;;;2.28;100.00;99293.47;1660050;86;21057;-68
2021/11/19 06:23:04;;;;;;;29.80;15.03;;;;;;;2.29;100.00;99283.72;1659201;86;20993;-69
2021/11/19 06:25:38;;;;;;;28.50;15.25;;;;;;;2.32;100.00;99272.86;1654455;86;20884;-67
2021/11/19 06:28:15;;;;;;;33.10;16.42;;;;;;;2.32;100.00;99262.84;1652957;86;21014;-68
2021/11/19 06:30:44;;;;;;;28.87;15.15;;;;;;;2.34;100.00;99262.57;1654880;86;23530;-70
2021/11/19 06:33:15;;;;;;;38.10;15.95;;;;;;;2.35;100.00;99253.36;1617267;87;20959;-68
2021/11/19 06:35:43;;;;;;;30.65;15.60;;;;;;;2.36;100.00;99241.44;1661992;85;20964;-66
2021/11/19 06:38:11;;;;;;;36.68;17.20;;;;;;;2.38;100.00;99244.70;1671890;85;21595;-66
2021/11/19 06:40:48;;;;;;;34.20;16.45;;;;;;;2.39;100.00;99249.57;1685407;84;20917;-66
2021/11/19 06:43:33;;;;;;;29.90;14.98;;;;;;;2.40;100.00;99244.42;1687870;85;21805;-68
2021/11/19 06:46:14;;;;;;;31.50;16.50;;;;;;;2.39;100.00;99236.84;1685177;84;20956;-67
2021/11/19 06:48:44;;;;;;;29.90;16.12;;;;;;;2.40;100.00;99230.34;1664820;85;21025;-68
2021/11/19 06:51:12;;;;;;;34.48;15.95;;;;;;;2.43;100.00;99228.98;1688743;84;20980;-67
2021/11/19 06:54:05;;;;;;;33.25;17.27;;;;;;;2.44;100.00;99231.42;1688015;85;21031;-68
2021/11/19 06:56:45;;;;;;;34.43;17.98;;;;;;;2.44;100.00;99223.30;1640381;85;21912;-68
2021/11/19 06:59:19;;;;;;;37.13;18.00;;;;;;;2.45;100.00;99218.16;1659988;84;21452;-67
2021/11/19 07:01:47;;;;;;;32.65;17.17;;;;;;;2.46;100.00;99213.55;1688522;84;20989;-67
2021/11/19 07:04:17;;;;;;;29.23;15.08;;;;;;;2.47;100.00;99208.40;1687793;85;20916;-66
2021/11/19 07:06:51;;;;;;;35.35;17.62;;;;;;;2.48;100.00;99198.64;1683463;84;20890;-67
2021/11/19 07:09:23;;;;;;;30.45;18.70;;;;;;;2.48;100.00;99201.90;1684405;85;21027;-68
2021/11/19 07:11:59;;;;;;;32.15;17.65;;;;;;;2.49;100.00;99198.11;1691255;84;21444;-67
2021/11/19 07:14:35;;;;;;;33.18;15.88;;;;;;;2.50;100.00;99193.77;1687644;84;20936;-69
2021/11/19 07:17:07;;;;;;;32.70;16.75;;;;;;;2.54;100.00;99198.11;1691503;84;20949;-67
2021/11/19 07:19:41;;;;;;;35.92;17.23;;;;;;;2.56;100.00;99191.88;1668731;85;21455;-69
2021/11/19 07:22:13;;;;;;;38.17;18.60;;;;;;;2.58;100.00;99178.86;1687911;85;21157;-71
2021/11/19 07:24:43;;;;;;;34.45;17.10;;;;;;;2.62;100.00;99170.46;1682831;84;20996;-71
2021/11/19 07:27:15;;;;;;;28.95;16.07;;;;;;;2.64;100.00;99166.94;1664536;85;20964;-70
2021/11/19 07:29:47;;;;;;;28.45;17.40;;;;;;;2.68;100.00;99161.78;1658597;86;21575;-68
2021/11/19 07:32:33;;;;;;;33.60;17.92;;;;;;;2.71;100.00;99153.92;1659856;86;20980;-71
2021/11/19 07:35:11;;;;;;;32.73;16.87;;;;;;;2.72;100.00;99150.13;1628688;87;20892;-69
2021/11/19 07:37:39;;;;;;;30.72;15.72;;;;;;;2.76;100.00;99153.09;1583547;87;21077;-69
2021/11/19 07:40:16;;;;;;;31.87;16.05;;;;;;;2.78;100.00;99143.61;1591148;86;21067;-68
2021/11/19 07:42:49;;;;;;;40.75;16.85;;;;;;;2.81;100.00;99149.02;1633549;86;21082;-69
2021/11/19 07:45:24;;;;;;;39.92;18.62;;;;;;;2.85;100.00;99142.77;1660280;85;20980;-69
2021/11/19 07:48:00;;;;;;;28.02;15.75;;;;;;;2.89;100.00;99148.43;1652197;86;21170;-69
2021/11/19 07:50:34;;;;;;;28.83;16.07;;;;;;;2.92;100.00;99140.56;1659798;86;21008;-67
2021/11/19 07:53:07;;;;;;;29.05;15.18;;;;;;;2.92;100.00;99140.56;1672334;84;21015;-70
2021/11/19 07:55:35;;;;;;;36.77;16.67;;;;;;;2.97;100.00;99145.97;1654777;84;21086;-69
2021/11/19 07:58:05;;;;;;;29.48;15.85;;;;;;;2.99;100.00;99136.20;1660559;86;20960;-70
2021/11/19 08:00:37;;;;;;;27.85;15.85;;;;;;;3.00;100.00;99132.41;1635296;86;20948;-71
2021/11/19 08:03:13;;;;;;;33.18;15.78;;;;;;;3.04;100.00;99128.05;1672608;84;21505;-71
2021/11/19 08:05:47;;;;;;;28.52;16.27;;;;;;;3.08;100.00;99132.38;1662704;85;20976;-74
2021/11/19 08:08:28;;;;;;;31.12;15.63;;;;;;;3.09;100.00;99130.75;1659687;85;21479;-83
2021/11/19 08:10:59;;;;;;;40.00;18.85;;;;;;;3.12;100.00;99128.84;1659628;86;21127;-79
2021/11/19 08:13:31;;;;;;;30.20;15.75;;;;;;;3.13;100.00;99131.81;1647004;85;20927;-67
2021/11/19 08:16:01;;;;;;;25.82;15.20;;;;;;;3.15;100.00;99121.50;1668871;85;21083;-67
2021/11/19 08:18:33;;;;;;;29.67;14.70;;;;;;;3.18;100.00;99120.95;1666611;85;21115;-72
2021/11/19 08:21:02;;;;;;;28.15;15.75;;;;;;;3.21;100.00;99119.59;1673473;84;21531;-76
2021/11/19 08:23:34;;;;;;;30.62;14.83;;;;;;;3.23;100.00;99118.22;1671127;84;21116;-71
2021/11/19 08:26:23;;;;;;;25.35;14.30;;;;;;;3.26;100.00;99112.78;1656203;85;21181;-72
2021/11/19 08:28:53;;;;;;;29.77;14.85;;;;;;;3.27;100.00;99108.44;1674259;85;21055;-78
2021/11/19 08:31:22;;;;;;;27.25;15.18;;;;;;;3.30;100.00;99107.06;1672318;85;20893;-69
2021/11/19 08:33:53;;;;;;;29.95;15.40;;;;;;;3.34;100.00;99088.33;1668540;84;20948;-70
2021/11/19 08:36:29;;;;;;;27.10;15.78;;;;;;;3.38;100.00;99088.04;1674007;85;21440;-75
2021/11/19 08:39:00;;;;;;;30.60;15.78;;;;;;;3.42;100.00;99080.41;1664920;85;21761;-69
2021/11/19 08:41:30;;;;;;;28.27;15.45;;;;;;;3.45;100.00;99068.19;1670944;85;20944;-72
2021/11/19 08:44:01;;;;;;;25.97;14.25;;;;;;;3.49;100.00;99072.75;1677461;84;21028;-78
2021/11/19 08:46:40;;;;;;;31.73;16.60;;;;;;;3.54;100.00;99062.41;1671247;84;21059;-72
2021/11/19 08:49:10;;;;;;;24.07;15.28;;;;;;;3.55;100.00;99059.95;1671525;85;21587;-78
2021/11/19 08:51:45;;;;;;;26.30;13.75;;;;;;;3.53;100.00;99057.52;1664380;85;21116;-76
2021/11/19 08:54:17;;;;;;;24.85;14.65;;;;;;;3.53;100.00;99057.52;1672917;85;21109;-76
2021/11/19 08:56:51;;;;;;;25.85;14.30;;;;;;;3.54;100.00;99054.27;1672005;85;21535;-79
2021/11/19 08:59:17;;;;;;;27.80;13.88;;;;;;;3.55;100.00;99046.39;1672140;85;20900;-76
2021/11/19 09:01:50;;;;;;;30.15;16.07;;;;;;;3.56;100.00;99042.03;1672256;85;20900;-72
2021/11/19 09:04:21;;;;;;;31.73;15.63;;;;;;;3.59;100.00;99036.59;1659979;85;21816;-70
2021/11/19 09:06:54;;;;;;;30.55;15.35;;;;;;;3.63;100.00;99040.36;1635671;86;20917;-74
2021/11/19 09:09:26;;;;;;;22.95;13.90;;;;;;;3.63;100.00;99039.81;1647136;86;20980;-74
2021/11/19 09:11:55;;;;;;;21.97;13.58;;;;;;;3.68;100.00;99039.52;1660097;85;21007;-73
2021/11/19 09:14:25;;;;;;;24.90;14.38;;;;;;;3.71;100.00;99026.73;1658307;86;21050;-74
2021/11/19 09:17:06;;;;;;;26.27;14.43;;;;;;;3.75;100.00;99018.29;1659472;85;22011;-73
2021/11/19 09:19:45;;;;;;;32.35;18.10;;;;;;;3.78;100.00;99028.03;1660159;86;20958;-74
2021/11/19 09:22:35;;;;;;;35.17;17.17;;;;;;;3.79;100.00;99013.37;1642665;86;21686;-72
2021/11/19 09:25:07;;;;;;;24.85;13.93;;;;;;;3.82;100.00;99014.16;1660067;86;20986;-68
2021/11/19 09:27:36;;;;;;;29.77;18.10;;;;;;;3.84;100.00;99015.23;1665043;85;21028;-76
2021/11/19 09:30:14;;;;;;;39.23;21.23;;;;;;;3.87;100.00;99009.23;1673422;84;21176;-71
2021/11/19 09:32:41;;;;;;;32.80;17.82;;;;;;;3.88;100.00;98999.44;1639230;86;21043;-73
2021/11/19 09:35:11;;;;;;;31.70;19.57;;;;;;;3.91;100.00;98998.88;1637145;86;22225;-69
2021/11/19 09:37:48;;;;;;;30.32;17.50;;;;;;;3.95;100.00;98998.56;1656586;86;21036;-71
2021/11/19 09:40:15;;;;;;;30.10;16.95;;;;;;;4.00;100.00;98993.64;1653200;86;21345;-73
2021/11/19 09:43:21;;;;;;;25.55;14.55;;;;;;;4.03;100.00;98987.63;1656085;86;21177;-70
2021/11/19 09:46:13;;;;;;;38.38;23.60;;;;;;;4.10;100.00;98989.98;1659228;86;20936;-70
2021/11/19 09:48:56;;;;;;;54.88;34.00;;;;;;;4.11;100.00;98972.04;1658972;86;21062;-74
2021/11/19 09:52:12;;;;;;;75.97;44.77;;;;;;;4.11;100.00;98972.04;1657556;86;21586;-72
2021/11/19 09:55:23;;;;;;;81.28;49.55;;;;;;;4.14;100.00;98961.15;1658139;86;22239;-72
2021/11/19 09:58:35;;;;;;;47.78;33.02;;;;;;;4.17;100.00;98951.88;1668099;85;21954;-69
2021/11/19 10:01:17;;;;;;;34.50;21.52;;;;;;;4.17;100.00;98951.88;1660286;86;21499;-78
2021/11/19 10:04:20;;;;;;;39.73;22.85;;;;;;;4.21;100.00;98942.05;1652904;86;21535;-84
2021/11/19 10:07:35;;;;;;;36.83;20.20;;;;;;;4.22;100.00;98938.23;1652477;86;20901;-69
2021/11/19 10:10:30;;;;;;;35.78;19.12;;;;;;;4.24;100.00;98936.04;1639432;86;21455;-74
2021/11/19 10:13:46;;;;;;;30.80;19.15;;;;;;;4.26;100.00;98924.88;1663499;85;21037;-75
2021/11/19 10:16:49;;;;;;;32.63;22.37;;;;;;;4.27;100.00;98921.07;1674737;85;20956;-79
2021/11/19 10:19:28;;;;;;;;;;;;;;;4.29;100.00;98913.44;1681210;85;21451;-76
2021/11/19 10:22:03;;;;;;;37.73;21.57;;;;;;;4.33;100.00;98914.48;1647599;86;20151;-70
2021/11/19 10:25:12;;;;;;;28.87;18.62;;;;;;;4.33;100.00;98909.05;1674514;85;20977;-68
2021/11/19 10:27:47;;;;;;;31.37;18.52;;;;;;;4.38;100.00;98906.81;1660121;86;21354;-68
2021/11/19 10:30:41;;;;;;;28.52;18.73;;;;;;;4.39;100.00;98901.09;1643417;84;20984;-70
2021/11/19 10:33:23;;;;;;;26.87;17.45;;;;;;;4.45;100.00;98889.05;1664941;85;21071;-66
2021/11/19 10:36:12;;;;;;;26.25;17.30;;;;;;;4.45;100.00;98889.05;1662701;84;21025;-65
2021/11/19 10:39:18;;;;;;;26.45;17.20;;;;;;;4.48;100.00;98891.74;1693507;84;21021;-63
2021/11/19 10:41:55;;;;;;;27.00;16.90;;;;;;;4.48;100.00;98883.03;1686351;84;20965;-65
2021/11/19 10:45:02;;;;;;;24.35;15.98;;;;;;;4.56;100.00;98876.14;1687843;84;20986;-66
2021/11/19 10:48:13;;;;;;;26.37;16.37;;;;;;;4.60;100.00;98863.03;1669371;85;20986;-66
2021/11/19 10:51:26;;;;;;;24.30;16.85;;;;;;;4.66;100.00;98854.23;1682166;84;21465;-75
2021/11/19 10:54:50;;;;;;;26.33;15.32;;;;;;;4.72;100.00;98852.24;1633931;87;20989;-72
2021/11/19 10:58:01;;;;;;;24.92;16.60;;;;;;;4.75;100.00;98853.02;1690805;84;21821;-78
2021/11/19 11:00:53;;;;;;;21.50;13.30;;;;;;;4.76;100.00;98860.07;1672210;85;20940;-74
2021/11/19 11:03:23;;;;;;;22.13;15.33;;;;;;;4.73;100.00;98845.16;1660307;85;21080;-76
2021/11/19 11:06:06;;;;;;;20.55;13.30;;;;;;;4.72;100.00;98849.53;1672387;85;20905;-81
2021/11/19 11:08:38;;;;;;;20.65;13.70;;;;;;;4.70;100.00;98847.66;1696290;84;20932;-78
2021/11/19 11:11:23;;;;;;;21.05;13.58;;;;;;;4.70;100.00;98848.45;1691201;84;21164;-77
2021/11/19 11:14:07;;;;;;;20.32;13.75;;;;;;;4.73;100.00;98849.78;1683498;83;21563;-75
2021/11/19 11:16:43;;;;;;;21.35;13.80;;;;;;;4.75;100.00;98850.30;1674959;85;20911;-73
2021/11/19 11:19:18;;;;;;;23.75;14.25;;;;;;;4.75;100.00;98847.03;1679052;85;21116;-76
2021/11/19 11:22:05;;;;;;;20.23;12.93;;;;;;;4.76;100.00;98845.92;1680314;85;20938;-78
2021/11/19 11:25:03;;;;;;;23.83;15.05;;;;;;;4.76;100.00;98839.67;1654792;85;21553;-76
2021/11/19 11:27:48;;;;;;;22.30;15.28;;;;;;;4.75;100.00;98836.15;1675510;85;21003;-73
2021/11/19 11:30:23;;;;;;;21.85;14.60;;;;;;;4.75;100.00;98829.91;1674966;85;21056;-86
2021/11/19 11:33:08;;;;;;;17.70;13.18;;;;;;;4.75;100.00;98827.19;1667961;85;21561;-75
2021/11/19 11:35:55;;;;;;;15.40;11.00;;;;;;;4.77;100.00;98830.42;1667305;84;21009;-71
2021/11/19 11:38:36;;;;;;;17.60;12.58;;;;;;;4.75;100.00;98829.35;1670563;85;21963;-69
2021/11/19 11:41:27;;;;;;;17.55;11.05;;;;;;;4.75;100.00;98829.35;1670581;84;21117;-72
2021/11/19 11:44:16;;;;;;;16.65;11.25;;;;;;;4.76;100.00;98822.00;1667366;85;21012;-71
2021/11/19 11:47:16;;;;;;;17.98;12.25;;;;;;;4.76;100.00;98816.56;1666638;85;20957;-74
2021/11/19 11:49:57;;;;;;;15.32;10.38;;;;;;;4.76;100.00;98820.64;1683490;84;21574;-72
2021/11/19 11:52:40;;;;;;;15.70;12.00;;;;;;;4.76;100.00;98820.64;1687783;84;21529;-74
2021/11/19 11:55:30;;;;;;;15.85;11.28;;;;;;;4.75;100.00;98819.03;1687779;85;21020;-72
2021/11/19 11:58:12;;;;;;;17.50;11.43;;;;;;;4.74;100.00;98813.33;1699535;84;21004;-68
2021/11/19 12:01:14;;;;;;;18.27;11.43;;;;;;;4.74;100.00;98813.33;1644295;84;20968;-68
2021/11/19 12:04:22;;;;;;;25.92;14.43;;;;;;;4.76;100.00;98814.66;1685039;84;21019;-70